KTMK

Details ICAO KTMK
Name TILLAMOOK
Region United States
Timezone America/Los_Angeles (UTC-8.0)
Plans Departing 4
Arriving 19
Stats Elevation 36 ft / 11 m (AMSL)
Location 45.418312° -123.814201°
Runways 2
Magnetic Variation 15.450° E
Sunrise 2017-12-12 15:47:32 UTC / 2017-12-12 07:47:32 Local
Sunset 2017-12-13 00:33:37 UTC / 2017-12-12 16:33:37 Local
Advertisement - Login to hide

Runways

ID Width Length Bearing (true) Bearing (mag) Surface Threshold Offset Overrun Length
01 75 ft / 23 m 2,910 ft / 887 m 30.59° 15.14° Asphalt 0 ft / 0 m 0 ft / 0 m
13 98 ft / 30 m 5,002 ft / 1,525 m 155.82° 140.37° Asphalt 0 ft / 0 m 0 ft / 0 m
19 75 ft / 23 m 2,910 ft / 887 m 210.59° 195.14° Asphalt 0 ft / 0 m 0 ft / 0 m
31 98 ft / 30 m 5,002 ft / 1,525 m 335.83° 320.38° Asphalt 0 ft / 0 m 0 ft / 0 m

Map

Weather


0- 5 10 15 20 25 30 35+ Temperature / ° C

Clouds and Precipitation
Forecast for 2017-12-12 12:00 UTC. Updated 2 hours ago

Ground ~20,000 ft ~40,000 ft Winds

METAR

KTMK 121235Z AUTO 13003KT 10SM SCT090 00/00 A3043 RMK AO2

TAF

Not found

Frequencies

Recorded 120.00 MHz AWOS 3
Approach 124.20 MHz SEATTLE APP/DEP
Unicom 122.80 MHz CTAF/UNICOM
Warning: Do not use this data for real-world aviation or navigation. No guarantee of current accuracy is given.